createdAt,value
2018-06-07T00:00:32.310Z,23.30
2018-06-07T00:03:01.729Z,23.30
2018-06-07T00:05:31.111Z,23.30
2018-06-07T00:08:00.566Z,23.30
2018-06-07T00:10:30.061Z,23.30
2018-06-07T00:12:59.457Z,23.20
2018-06-07T00:15:28.854Z,23.20
2018-06-07T00:17:58.250Z,23.20
2018-06-07T00:20:27.725Z,23.10
2018-06-07T00:22:57.105Z,23.10
2018-06-07T00:25:26.481Z,23.10
2018-06-07T00:27:55.983Z,23.10
2018-06-07T00:30:25.445Z,23.00
2018-06-07T00:32:54.852Z,23.00
2018-06-07T00:35:28.333Z,23.00
2018-06-07T00:37:57.739Z,22.90
2018-06-07T00:40:27.077Z,22.90
2018-06-07T00:42:56.451Z,22.90
2018-06-07T00:45:25.796Z,22.90
2018-06-07T00:47:55.223Z,22.80
2018-06-07T00:50:24.632Z,22.80
2018-06-07T00:52:53.982Z,22.80
2018-06-07T00:55:23.385Z,22.80
2018-06-07T00:57:52.904Z,22.80
2018-06-07T01:00:22.282Z,22.80
2018-06-07T01:02:51.661Z,22.70
2018-06-07T01:05:21.035Z,22.70
2018-06-07T01:07:50.394Z,22.70
2018-06-07T01:10:19.793Z,22.70
2018-06-07T01:12:49.349Z,22.70
2018-06-07T01:15:18.732Z,22.60
2018-06-07T01:17:48.153Z,22.60
2018-06-07T01:20:17.586Z,22.60
2018-06-07T01:22:47.015Z,22.60
2018-06-07T01:25:16.484Z,22.60
2018-06-07T01:27:46.016Z,22.60
2018-06-07T01:30:34.045Z,22.50
2018-06-07T01:33:52.909Z,22.50
2018-06-07T01:36:22.335Z,22.30
2018-06-07T01:39:22.970Z,22.30
2018-06-07T01:41:52.424Z,22.20
2018-06-07T01:44:21.870Z,22.20
2018-06-07T01:46:51.343Z,22.20
2018-06-07T01:49:20.736Z,22.20
2018-06-07T01:51:50.129Z,22.20
2018-06-07T01:54:19.574Z,22.20
2018-06-07T01:56:49.055Z,22.20
2018-06-07T01:59:18.656Z,22.20
2018-06-07T02:01:48.104Z,22.10
2018-06-07T02:04:17.525Z,22.10
2018-06-07T02:06:46.900Z,22.10
2018-06-07T02:09:16.277Z,22.10
2018-06-07T02:11:45.698Z,22.00
2018-06-07T02:14:15.077Z,22.00
2018-06-07T02:16:44.443Z,22.00
2018-06-07T02:19:13.785Z,21.90
2018-06-07T02:21:43.127Z,21.90
2018-06-07T02:24:12.755Z,21.90
2018-06-07T02:26:42.200Z,21.90
2018-06-07T02:29:11.627Z,21.80
2018-06-07T02:31:40.993Z,21.80
2018-06-07T02:34:10.377Z,21.80
2018-06-07T02:36:39.795Z,21.80
2018-06-07T02:39:09.185Z,21.70
2018-06-07T02:41:38.620Z,21.70
2018-06-07T02:44:08.090Z,21.70
2018-06-07T02:46:37.429Z,21.60
2018-06-07T02:49:06.826Z,21.60
2018-06-07T02:51:36.236Z,21.60
2018-06-07T02:54:05.978Z,21.50
2018-06-07T02:56:35.372Z,21.50
2018-06-07T02:59:04.873Z,21.50
2018-06-07T03:01:34.280Z,21.50
2018-06-07T03:04:03.677Z,21.40
2018-06-07T03:06:33.114Z,21.40
2018-06-07T03:09:02.526Z,21.40
2018-06-07T03:11:31.836Z,21.40
2018-06-07T03:14:01.198Z,21.30
2018-06-07T03:16:30.592Z,21.30
2018-06-07T03:18:59.947Z,21.30
2018-06-07T03:21:29.389Z,21.30
2018-06-07T03:23:58.760Z,21.30
2018-06-07T03:26:28.212Z,21.20
2018-06-07T03:28:57.655Z,21.20
2018-06-07T03:31:27.222Z,21.20
2018-06-07T03:33:56.570Z,21.20
2018-06-07T03:36:25.685Z,21.20
2018-06-07T03:38:55.168Z,21.20
2018-06-07T03:41:24.564Z,21.20
2018-06-07T03:43:54.030Z,21.20
2018-06-07T03:46:23.522Z,21.30
2018-06-07T03:48:52.888Z,21.30
2018-06-07T03:51:22.320Z,21.30
2018-06-07T03:53:51.490Z,21.30
2018-06-07T03:56:20.861Z,21.30
2018-06-07T03:58:50.259Z,21.30
2018-06-07T04:01:19.692Z,21.30
2018-06-07T04:03:49.593Z,21.30
2018-06-07T04:06:18.969Z,21.40
2018-06-07T04:08:48.413Z,21.40
2018-06-07T04:11:18.262Z,21.40
2018-06-07T04:13:47.633Z,21.40
2018-06-07T04:16:16.987Z,21.50
2018-06-07T04:18:46.355Z,21.50
2018-06-07T04:21:15.789Z,21.50
2018-06-07T04:23:45.161Z,21.60
2018-06-07T04:26:14.543Z,21.60
2018-06-07T04:28:44.036Z,21.60
2018-06-07T04:31:13.463Z,21.70
2018-06-07T04:33:42.833Z,21.70
2018-06-07T04:36:12.218Z,21.80
2018-06-07T04:38:41.634Z,21.80
2018-06-07T04:41:11.001Z,21.80
2018-06-07T04:43:40.305Z,21.90
2018-06-07T04:46:09.655Z,21.90
2018-06-07T04:48:39.037Z,22.00
2018-06-07T04:51:08.417Z,22.10
2018-06-07T04:53:37.784Z,22.10
2018-06-07T04:56:07.304Z,22.10
2018-06-07T04:58:36.678Z,22.20
2018-06-07T05:01:06.083Z,22.20
2018-06-07T05:03:35.509Z,22.30
2018-06-07T05:06:04.980Z,22.40
2018-06-07T05:08:34.326Z,22.40
2018-06-07T05:11:03.725Z,22.40
2018-06-07T05:13:33.237Z,22.50
2018-06-07T05:16:02.792Z,22.60
2018-06-07T05:18:32.311Z,22.60
2018-06-07T05:21:02.929Z,22.70
2018-06-07T05:23:32.353Z,22.70
2018-06-07T05:26:01.897Z,22.80
2018-06-07T05:28:31.331Z,22.90
2018-06-07T05:31:00.679Z,22.90
2018-06-07T05:33:30.065Z,23.00
2018-06-07T05:35:59.414Z,23.10
2018-06-07T05:38:28.853Z,23.20
2018-06-07T05:40:58.167Z,23.20
2018-06-07T05:43:27.541Z,23.30
2018-06-07T05:45:56.909Z,23.40
2018-06-07T05:48:26.359Z,23.50
2018-06-07T05:50:55.710Z,23.60
2018-06-07T05:53:25.080Z,23.70
2018-06-07T05:55:54.665Z,23.80
2018-06-07T05:58:24.107Z,23.90
2018-06-07T06:00:53.419Z,24.00
2018-06-07T06:03:22.831Z,24.20
2018-06-07T06:05:52.290Z,24.40
2018-06-07T06:08:21.645Z,24.60
2018-06-07T06:10:51.016Z,24.70
2018-06-07T06:13:20.373Z,24.90
2018-06-07T06:15:50.133Z,25.20
2018-06-07T06:18:19.501Z,25.40
2018-06-07T06:20:48.898Z,25.70
2018-06-07T06:23:18.245Z,25.90
2018-06-07T06:25:47.599Z,26.10
2018-06-07T06:28:17.142Z,26.40
2018-06-07T06:30:46.599Z,26.70
2018-06-07T06:33:16.035Z,26.90
2018-06-07T06:35:45.392Z,27.10
2018-06-07T06:38:46.635Z,27.40
2018-06-07T06:41:16.047Z,27.50
2018-06-07T06:43:45.555Z,27.80
2018-06-07T06:46:14.980Z,28.10
2018-06-07T06:48:44.542Z,28.30
2018-06-07T06:51:13.946Z,28.50
2018-06-07T06:53:43.311Z,28.70
2018-06-07T06:56:12.732Z,28.90
2018-06-07T06:58:42.107Z,29.10
2018-06-07T07:01:11.166Z,29.30
2018-06-07T07:03:40.525Z,29.50
2018-06-07T07:06:09.625Z,29.70
2018-06-07T07:08:38.952Z,29.90
2018-06-07T07:11:08.340Z,30.10
2018-06-07T07:13:37.696Z,30.20
2018-06-07T07:16:07.071Z,30.40
2018-06-07T07:18:36.513Z,30.60
2018-06-07T07:21:05.906Z,30.80
2018-06-07T07:23:35.261Z,30.90
2018-06-07T07:26:04.701Z,31.10
2018-06-07T07:28:34.120Z,31.20
2018-06-07T07:31:03.641Z,31.30
2018-06-07T07:33:32.989Z,31.40
2018-06-07T07:36:02.449Z,31.40
2018-06-07T07:38:31.831Z,31.40
2018-06-07T07:41:01.254Z,31.40
2018-06-07T07:43:30.675Z,31.30
2018-06-07T07:46:00.097Z,31.30
2018-06-07T07:48:29.567Z,31.40
2018-06-07T07:50:58.906Z,31.50
2018-06-07T07:53:28.300Z,31.50
2018-06-07T07:55:57.713Z,31.70
2018-06-07T07:58:27.061Z,31.70
2018-06-07T08:00:56.513Z,31.80
2018-06-07T08:03:25.844Z,32.00
2018-06-07T08:05:55.238Z,32.10
2018-06-07T08:08:24.658Z,32.20
2018-06-07T08:10:54.206Z,32.40
2018-06-07T08:13:23.673Z,32.50
2018-06-07T08:15:53.121Z,32.60
2018-06-07T08:18:22.545Z,32.80
2018-06-07T08:20:51.877Z,32.90
2018-06-07T08:23:21.256Z,33.00
2018-06-07T08:25:50.674Z,33.10
2018-06-07T08:28:20.064Z,33.20
2018-06-07T08:30:49.469Z,33.30
2018-06-07T08:33:18.903Z,33.40
2018-06-07T08:35:48.430Z,33.50
2018-06-07T08:38:18.039Z,33.60
2018-06-07T08:40:47.968Z,33.70
2018-06-07T08:43:17.353Z,33.80
2018-06-07T08:45:46.777Z,33.90
2018-06-07T08:48:16.271Z,34.00
2018-06-07T08:50:45.842Z,34.10
2018-06-07T08:53:15.178Z,34.10
2018-06-07T08:55:45.805Z,34.20
2018-06-07T08:58:15.224Z,34.20
2018-06-07T09:00:44.731Z,34.30
2018-06-07T09:03:14.267Z,34.40
2018-06-07T09:05:43.884Z,34.50
2018-06-07T09:08:14.521Z,34.60
2018-06-07T09:10:44.050Z,34.60
2018-06-07T09:13:13.617Z,34.60
2018-06-07T09:15:43.114Z,34.60
2018-06-07T09:18:12.553Z,34.70
2018-06-07T09:20:41.953Z,34.70
2018-06-07T09:23:11.323Z,34.60
2018-06-07T09:25:40.733Z,34.60
2018-06-07T09:28:10.081Z,34.40
2018-06-07T09:30:39.449Z,34.30
2018-06-07T09:33:08.820Z,34.10
2018-06-07T09:35:38.318Z,34.00
2018-06-07T09:38:07.720Z,33.80
2018-06-07T09:40:37.139Z,33.60
2018-06-07T09:43:06.551Z,33.40
2018-06-07T09:45:36.001Z,33.20
2018-06-07T09:48:05.850Z,33.00
2018-06-07T09:50:35.975Z,32.90
2018-06-07T09:53:05.552Z,32.70
2018-06-07T09:55:34.987Z,32.50
2018-06-07T09:58:04.742Z,32.30
2018-06-07T10:00:34.241Z,32.20
2018-06-07T10:03:03.894Z,32.00
2018-06-07T10:05:33.272Z,31.90
2018-06-07T10:08:03.226Z,31.70
2018-06-07T10:10:32.677Z,31.60
2018-06-07T10:13:03.046Z,31.40
2018-06-07T10:15:32.652Z,31.30
2018-06-07T10:18:02.182Z,31.30
2018-06-07T10:20:31.696Z,31.20
2018-06-07T10:23:00.703Z,31.10
2018-06-07T10:25:30.081Z,31.00
2018-06-07T10:27:59.449Z,31.00
2018-06-07T10:30:28.799Z,30.90
2018-06-07T10:32:58.317Z,30.80
2018-06-07T10:35:27.819Z,30.80
2018-06-07T10:37:57.316Z,30.70
2018-06-07T10:40:26.949Z,30.70
2018-06-07T10:42:56.063Z,30.60
2018-06-07T10:45:25.662Z,30.60
2018-06-07T10:47:55.420Z,30.50
2018-06-07T10:50:24.844Z,30.50
2018-06-07T10:52:54.389Z,30.50
2018-06-07T10:55:23.638Z,30.40
2018-06-07T10:57:53.170Z,30.40
2018-06-07T11:00:22.535Z,30.30
2018-06-07T11:02:52.830Z,30.30
2018-06-07T11:05:22.285Z,30.30
2018-06-07T11:07:52.571Z,30.30
2018-06-07T11:10:22.078Z,30.30
2018-06-07T11:12:51.388Z,30.30
2018-06-07T11:15:20.920Z,30.30
2018-06-07T11:17:50.409Z,30.30
2018-06-07T11:20:20.729Z,30.30
2018-06-07T11:22:50.237Z,30.20
2018-06-07T11:25:19.750Z,30.20
2018-06-07T11:27:48.883Z,30.20
2018-06-07T11:30:19.364Z,30.20
2018-06-07T11:32:48.891Z,30.20
2018-06-07T11:35:17.946Z,30.20
2018-06-07T11:37:47.401Z,30.20
2018-06-07T11:40:16.865Z,30.10
2018-06-07T11:42:46.253Z,30.20
2018-06-07T11:45:15.934Z,30.20
2018-06-07T11:47:45.538Z,30.20
2018-06-07T11:50:15.139Z,30.20
2018-06-07T11:52:44.214Z,30.20
2018-06-07T11:55:13.752Z,30.20
2018-06-07T11:57:43.126Z,30.20
2018-06-07T12:00:12.653Z,30.20
2018-06-07T12:02:42.168Z,30.20
2018-06-07T12:05:12.407Z,30.20
2018-06-07T12:07:41.993Z,30.10
2018-06-07T12:10:11.950Z,30.10
2018-06-07T12:12:41.573Z,30.10
2018-06-07T12:15:11.159Z,30.10
2018-06-07T12:17:40.605Z,30.10
2018-06-07T12:20:10.102Z,30.10
2018-06-07T12:22:39.632Z,30.10
2018-06-07T12:25:09.074Z,30.10
2018-06-07T12:27:38.507Z,30.10
2018-06-07T12:30:08.106Z,30.10
2018-06-07T12:32:37.330Z,30.20
2018-06-07T12:35:07.214Z,30.20
2018-06-07T12:37:36.362Z,30.20
2018-06-07T12:40:05.976Z,30.10
2018-06-07T12:42:35.478Z,30.10
2018-06-07T12:45:05.081Z,30.20
2018-06-07T12:47:34.745Z,30.20
2018-06-07T12:50:04.427Z,30.10
2018-06-07T12:52:34.143Z,30.20
2018-06-07T12:55:03.605Z,30.10
2018-06-07T12:57:33.051Z,30.10
2018-06-07T13:00:02.741Z,30.10
2018-06-07T13:02:32.354Z,30.20
2018-06-07T13:05:01.946Z,30.20
2018-06-07T13:07:32.246Z,30.20
2018-06-07T13:10:01.671Z,30.20
2018-06-07T13:12:31.369Z,30.20
2018-06-07T13:15:00.890Z,30.10
2018-06-07T13:17:30.459Z,30.10
2018-06-07T13:19:59.793Z,30.10
2018-06-07T13:22:29.774Z,30.20
2018-06-07T13:24:59.387Z,30.20
2018-06-07T13:27:28.906Z,30.10
2018-06-07T13:29:58.347Z,30.10
2018-06-07T13:32:27.889Z,30.20
2018-06-07T13:34:57.337Z,30.10
2018-06-07T13:37:26.879Z,30.20
2018-06-07T13:39:56.880Z,30.20
2018-06-07T13:42:26.137Z,30.20
2018-06-07T13:44:55.912Z,30.20
2018-06-07T13:47:25.649Z,30.20
2018-06-07T13:49:55.626Z,30.20
2018-06-07T13:52:25.457Z,30.10
2018-06-07T13:54:55.033Z,30.10
2018-06-07T13:57:24.513Z,30.10
2018-06-07T13:59:54.185Z,30.10
2018-06-07T14:02:23.752Z,30.10
2018-06-07T14:04:53.386Z,30.10
2018-06-07T14:07:23.637Z,30.10
2018-06-07T14:09:53.122Z,30.10
2018-06-07T14:12:22.685Z,30.10
2018-06-07T14:14:52.143Z,30.10
2018-06-07T14:17:21.735Z,30.10
2018-06-07T14:19:51.533Z,30.10
2018-06-07T14:22:20.666Z,30.20
2018-06-07T14:24:50.167Z,30.10
2018-06-07T14:27:19.703Z,30.10
2018-06-07T14:29:49.457Z,30.10
2018-06-07T14:32:19.091Z,30.10
2018-06-07T14:34:48.615Z,30.10
2018-06-07T14:37:18.293Z,30.10
2018-06-07T14:39:49.306Z,30.10
2018-06-07T14:42:19.228Z,30.10
2018-06-07T14:44:48.853Z,30.10
2018-06-07T14:47:18.133Z,30.10
2018-06-07T14:49:47.545Z,30.10
2018-06-07T14:52:17.531Z,30.10
2018-06-07T14:54:47.129Z,30.10
2018-06-07T14:57:16.626Z,30.10
2018-06-07T14:59:46.318Z,30.10
2018-06-07T15:02:15.811Z,30.10
2018-06-07T15:04:45.389Z,30.10
2018-06-07T15:07:14.970Z,30.10
2018-06-07T15:09:44.538Z,30.10
2018-06-07T15:12:14.067Z,30.10
2018-06-07T15:14:43.573Z,30.10
2018-06-07T15:17:13.651Z,30.10
2018-06-07T15:19:43.240Z,30.10
2018-06-07T15:22:13.040Z,30.10
2018-06-07T15:24:42.267Z,30.10
2018-06-07T15:27:11.911Z,30.10
2018-06-07T15:29:41.411Z,30.10
2018-06-07T15:32:11.251Z,30.10
2018-06-07T15:34:40.666Z,30.10
2018-06-07T15:37:10.213Z,30.10
2018-06-07T15:39:39.800Z,30.10
2018-06-07T15:42:09.425Z,30.10
2018-06-07T15:44:39.070Z,30.00
2018-06-07T15:47:08.560Z,30.00
2018-06-07T15:49:38.261Z,30.00
2018-06-07T15:52:07.740Z,30.10
2018-06-07T15:54:37.392Z,30.10
2018-06-07T15:57:07.313Z,30.10
2018-06-07T15:59:36.982Z,30.10
2018-06-07T16:02:06.698Z,30.10
2018-06-07T16:04:36.044Z,30.10
2018-06-07T16:07:05.662Z,30.10
2018-06-07T16:09:35.267Z,30.10
2018-06-07T16:12:04.662Z,30.10
2018-06-07T16:14:34.171Z,30.10
2018-06-07T16:17:03.799Z,30.10
2018-06-07T16:19:33.258Z,30.10
2018-06-07T16:22:02.613Z,30.10
2018-06-07T16:24:32.152Z,30.10
2018-06-07T16:27:08.275Z,30.10
2018-06-07T16:29:38.356Z,30.10
2018-06-07T16:32:08.017Z,30.10
2018-06-07T16:34:37.480Z,30.10
2018-06-07T16:37:07.001Z,30.10
2018-06-07T16:39:36.510Z,30.20
2018-06-07T16:42:06.144Z,30.20
2018-06-07T16:44:35.584Z,30.10
2018-06-07T16:47:05.239Z,30.20
2018-06-07T16:49:34.843Z,30.20
2018-06-07T16:52:04.301Z,30.20
2018-06-07T16:54:33.708Z,30.10
2018-06-07T16:57:03.152Z,30.10
2018-06-07T16:59:32.500Z,30.10
2018-06-07T17:02:01.963Z,30.10
2018-06-07T17:04:31.322Z,30.10
2018-06-07T17:07:00.696Z,30.10
2018-06-07T17:09:30.106Z,30.10
2018-06-07T17:11:59.516Z,30.10
2018-06-07T17:14:29.068Z,30.10
2018-06-07T17:16:58.755Z,30.10
2018-06-07T17:19:28.497Z,30.10
2018-06-07T17:21:58.061Z,30.10
2018-06-07T17:24:27.632Z,30.00
2018-06-07T17:29:31.735Z,30.00
2018-06-07T17:32:01.156Z,30.00
2018-06-07T17:34:30.695Z,30.00
2018-06-07T17:37:00.245Z,30.00
2018-06-07T17:39:29.690Z,30.00
2018-06-07T17:41:59.209Z,30.00
2018-06-07T17:44:28.844Z,29.90
2018-06-07T17:46:58.450Z,29.90
2018-06-07T17:49:27.893Z,29.90
2018-06-07T17:51:57.311Z,29.90
2018-06-07T17:54:26.737Z,29.90
2018-06-07T17:56:58.044Z,29.90
2018-06-07T17:59:27.503Z,29.80
2018-06-07T18:01:56.976Z,29.80
2018-06-07T18:04:26.478Z,29.80
2018-06-07T18:06:56.052Z,29.80
2018-06-07T18:09:25.443Z,29.80
2018-06-07T18:11:54.873Z,29.80
2018-06-07T18:14:25.353Z,29.70
2018-06-07T18:16:55.337Z,29.70
2018-06-07T18:19:24.782Z,29.70
2018-06-07T18:21:54.154Z,29.70
2018-06-07T18:24:23.569Z,29.60
2018-06-07T18:26:53.175Z,29.60
2018-06-07T18:29:22.823Z,29.60
2018-06-07T18:31:52.281Z,29.60
2018-06-07T18:36:50.413Z,29.50
2018-06-07T18:39:20.056Z,29.50
2018-06-07T18:41:49.519Z,29.50
2018-06-07T18:44:19.874Z,29.50
2018-06-07T18:46:49.389Z,29.40
2018-06-07T18:49:18.826Z,29.40
2018-06-07T18:51:48.291Z,29.30
2018-06-07T18:54:17.770Z,29.30
2018-06-07T18:56:47.259Z,29.30
2018-06-07T18:59:16.695Z,29.30
2018-06-07T19:01:46.251Z,29.20
2018-06-07T19:04:15.641Z,29.20
2018-06-07T19:06:44.848Z,29.10
2018-06-07T19:09:19.400Z,29.10
2018-06-07T19:11:48.890Z,29.10
2018-06-07T19:14:23.821Z,29.00
2018-06-07T19:16:53.277Z,29.00
2018-06-07T19:19:27.943Z,29.00
2018-06-07T19:21:58.607Z,28.90
2018-06-07T19:24:28.265Z,28.90
2018-06-07T19:27:03.174Z,28.90
2018-06-07T19:29:32.608Z,28.80
2018-06-07T19:32:07.387Z,28.80
2018-06-07T19:34:42.146Z,28.80
2018-06-07T19:37:11.945Z,28.70
2018-06-07T19:40:49.461Z,28.70
2018-06-07T19:43:19.026Z,28.50
2018-06-07T19:45:48.655Z,28.50
2018-06-07T19:48:18.297Z,28.50
2018-06-07T19:50:47.874Z,28.50
2018-06-07T19:53:17.536Z,28.50
2018-06-07T19:55:46.988Z,28.50
2018-06-07T19:58:16.696Z,28.40
2018-06-07T20:00:46.881Z,28.40
2018-06-07T20:03:16.698Z,28.40
2018-06-07T20:05:46.564Z,28.40
2018-06-07T20:08:16.159Z,28.40
2018-06-07T20:10:45.836Z,28.30
2018-06-07T20:13:15.532Z,28.30
2018-06-07T20:15:45.454Z,28.30
2018-06-07T20:18:15.021Z,28.20
2018-06-07T20:20:44.807Z,28.20
2018-06-07T20:23:14.289Z,28.20
2018-06-07T20:25:44.394Z,28.20
2018-06-07T20:28:13.928Z,28.10
2018-06-07T20:30:43.635Z,28.10
2018-06-07T20:33:13.258Z,28.10
2018-06-07T20:35:42.882Z,28.10
2018-06-07T20:38:12.228Z,28.00
2018-06-07T20:40:42.025Z,28.00
2018-06-07T20:43:11.574Z,27.90
2018-06-07T20:45:41.013Z,27.90
2018-06-07T20:48:10.624Z,27.90
2018-06-07T20:50:40.190Z,27.80
2018-06-07T20:53:09.403Z,27.80
2018-06-07T20:55:38.901Z,27.80
2018-06-07T20:58:08.496Z,27.70
2018-06-07T21:00:38.834Z,27.70
2018-06-07T21:03:08.454Z,27.60
2018-06-07T21:05:38.016Z,27.60
2018-06-07T21:08:07.579Z,27.60
2018-06-07T21:10:37.183Z,27.50
2018-06-07T21:13:06.773Z,27.50
2018-06-07T21:15:36.276Z,27.40
2018-06-07T21:18:05.841Z,27.40
2018-06-07T21:20:35.335Z,27.40
2018-06-07T21:23:04.811Z,27.30
2018-06-07T21:25:34.250Z,27.30
2018-06-07T21:28:03.783Z,27.20
2018-06-07T21:30:33.370Z,27.20
2018-06-07T21:33:03.014Z,27.10
2018-06-07T21:35:32.442Z,27.10
2018-06-07T21:38:02.068Z,27.00
2018-06-07T21:40:32.369Z,27.00
2018-06-07T21:43:01.883Z,27.00
2018-06-07T21:45:31.430Z,26.90
2018-06-07T21:48:00.927Z,26.90
2018-06-07T21:50:30.469Z,26.80
2018-06-07T21:52:59.927Z,26.80
2018-06-07T21:55:29.370Z,26.70
2018-06-07T21:57:58.869Z,26.70
2018-06-07T22:00:28.354Z,26.60
2018-06-07T22:02:57.813Z,26.60
2018-06-07T22:05:27.409Z,26.50
2018-06-07T22:07:56.897Z,26.50
2018-06-07T22:10:26.515Z,26.50
2018-06-07T22:12:56.204Z,26.40
2018-06-07T22:15:25.772Z,26.40
2018-06-07T22:17:55.262Z,26.40
2018-06-07T22:20:25.268Z,26.30
2018-06-07T22:22:55.013Z,26.30
2018-06-07T22:25:24.716Z,26.20
2018-06-07T22:27:54.114Z,26.20
2018-06-07T22:30:23.581Z,26.20
2018-06-07T22:32:53.064Z,26.10
2018-06-07T22:35:22.512Z,26.10
2018-06-07T22:37:52.132Z,26.10
2018-06-07T22:40:21.617Z,26.00
2018-06-07T22:42:51.320Z,26.00
2018-06-07T22:45:20.768Z,26.00
2018-06-07T22:47:50.350Z,25.90
2018-06-07T22:50:19.841Z,25.90
2018-06-07T22:52:49.533Z,25.90
2018-06-07T22:55:19.060Z,25.80
2018-06-07T22:57:48.637Z,25.80
2018-06-07T23:00:18.113Z,25.70
2018-06-07T23:02:52.169Z,25.70
2018-06-07T23:05:21.837Z,25.70
2018-06-07T23:07:54.261Z,25.60
2018-06-07T23:10:23.769Z,25.60
2018-06-07T23:12:53.414Z,25.60
2018-06-07T23:15:23.493Z,25.50
2018-06-07T23:17:53.679Z,25.50
2018-06-07T23:20:23.296Z,25.40
2018-06-07T23:22:53.510Z,25.40
2018-06-07T23:25:23.022Z,25.40
2018-06-07T23:27:52.546Z,25.40
2018-06-07T23:30:22.165Z,25.30
2018-06-07T23:32:51.792Z,25.30
2018-06-07T23:35:21.356Z,25.30
2018-06-07T23:37:50.854Z,25.20
2018-06-07T23:40:20.335Z,25.20
2018-06-07T23:42:49.870Z,25.20
2018-06-07T23:45:19.424Z,25.10
2018-06-07T23:47:48.963Z,25.10
2018-06-07T23:50:18.713Z,25.10
2018-06-07T23:52:49.067Z,25.00
2018-06-07T23:55:18.744Z,25.00
2018-06-07T23:57:48.250Z,25.00
